createdAt,value
2022-10-31T00:01:39.438Z,11.36
2022-10-31T00:04:07.137Z,11.31
2022-10-31T00:06:34.128Z,11.42
2022-10-31T00:09:03.943Z,11.58
2022-10-31T00:11:31.159Z,11.54
2022-10-31T00:14:00.157Z,11.71
2022-10-31T00:16:28.664Z,11.37
2022-10-31T00:19:03.448Z,11.34
2022-10-31T00:21:32.247Z,11.31
2022-10-31T00:24:00.753Z,11.21
2022-10-31T00:26:32.858Z,11.18
2022-10-31T00:29:00.887Z,11.08
2022-10-31T00:31:28.243Z,11.04
2022-10-31T00:33:55.297Z,11.01
2022-10-31T00:36:22.360Z,10.97
2022-10-31T00:38:49.863Z,11.20
2022-10-31T00:41:18.693Z,11.33
2022-10-31T00:43:46.141Z,11.36
2022-10-31T00:46:14.410Z,11.33
2022-10-31T00:48:41.494Z,11.21
2022-10-31T00:51:08.510Z,11.18
2022-10-31T00:53:36.044Z,10.93
2022-10-31T00:56:03.397Z,10.99
2022-10-31T00:58:30.338Z,10.72
2022-10-31T01:00:57.412Z,10.72
2022-10-31T01:03:31.435Z,10.71
2022-10-31T01:06:07.906Z,10.74
2022-10-31T01:08:37.148Z,10.68
2022-10-31T01:11:15.408Z,10.59
2022-10-31T01:13:43.428Z,10.68
2022-10-31T01:16:15.090Z,10.81
2022-10-31T01:18:42.160Z,10.81
2022-10-31T01:21:19.863Z,10.86
2022-10-31T01:23:46.970Z,10.83
2022-10-31T01:26:18.104Z,10.67
2022-10-31T01:28:57.334Z,10.65
2022-10-31T01:31:30.240Z,10.60
2022-10-31T01:33:57.549Z,10.66
2022-10-31T01:36:36.924Z,10.56
2022-10-31T01:39:07.840Z,10.53
2022-10-31T01:41:38.866Z,10.61
2022-10-31T01:44:14.708Z,10.60
2022-10-31T01:46:54.632Z,10.84
2022-10-31T01:49:42.826Z,10.79
2022-10-31T01:52:31.529Z,10.90
2022-10-31T01:55:10.887Z,10.98
2022-10-31T01:57:41.013Z,10.98
2022-10-31T02:00:11.663Z,11.23
2022-10-31T02:02:39.007Z,11.18
2022-10-31T02:05:11.760Z,11.18
2022-10-31T02:08:03.482Z,11.17
2022-10-31T02:10:33.491Z,11.25
2022-10-31T02:13:03.883Z,11.18
2022-10-31T02:15:33.743Z,11.20
2022-10-31T02:18:01.643Z,11.22
2022-10-31T02:21:29.113Z,11.27
2022-10-31T02:24:49.090Z,11.09
2022-10-31T02:27:57.270Z,11.20
2022-10-31T02:33:16.861Z,11.10
2022-10-31T02:36:28.601Z,11.12
2022-10-31T02:39:09.541Z,11.18
2022-10-31T02:41:53.473Z,11.06
2022-10-31T02:45:01.484Z,11.02
2022-10-31T02:47:33.481Z,11.05
2022-10-31T02:50:27.555Z,11.00
2022-10-31T02:52:54.955Z,10.98
2022-10-31T02:55:27.222Z,10.95
2022-10-31T02:58:05.962Z,10.96
2022-10-31T03:01:02.994Z,11.00
2022-10-31T03:04:05.333Z,11.06
2022-10-31T03:06:47.274Z,11.09
2022-10-31T03:09:39.384Z,11.00
2022-10-31T03:12:18.846Z,10.90
2022-10-31T03:14:51.300Z,10.94
2022-10-31T03:17:38.695Z,10.95
2022-10-31T03:20:09.949Z,11.02
2022-10-31T03:22:40.462Z,10.99
2022-10-31T03:25:08.850Z,10.95
2022-10-31T03:27:38.880Z,11.05
2022-10-31T03:30:08.920Z,11.02
2022-10-31T03:32:53.548Z,10.86
2022-10-31T03:35:24.464Z,10.93
2022-10-31T03:37:55.235Z,10.94
2022-10-31T03:40:26.155Z,10.87
2022-10-31T03:43:17.619Z,10.91
2022-10-31T03:45:49.095Z,11.00
2022-10-31T03:48:19.139Z,10.89
2022-10-31T03:50:53.012Z,10.91
2022-10-31T03:54:03.013Z,10.72
2022-10-31T03:56:35.637Z,10.71
2022-10-31T03:59:20.797Z,10.93
2022-10-31T04:01:53.102Z,10.92
2022-10-31T04:04:21.287Z,10.99
2022-10-31T04:06:50.067Z,11.15
2022-10-31T04:09:19.460Z,10.91
2022-10-31T04:11:52.505Z,10.71
2022-10-31T04:14:19.503Z,10.84
2022-10-31T04:16:47.237Z,10.87
2022-10-31T04:19:15.423Z,10.72
2022-10-31T04:21:44.412Z,10.72
2022-10-31T04:24:12.482Z,10.73
2022-10-31T04:26:39.402Z,10.79
2022-10-31T04:29:06.512Z,10.67
2022-10-31T04:31:33.455Z,10.48
2022-10-31T04:34:00.470Z,10.41
2022-10-31T04:36:27.454Z,10.30
2022-10-31T04:38:54.450Z,10.44
2022-10-31T04:41:21.334Z,10.63
2022-10-31T04:43:48.380Z,10.52
2022-10-31T04:46:15.304Z,10.32
2022-10-31T04:48:42.393Z,10.36
2022-10-31T04:51:09.373Z,10.36
2022-10-31T04:53:36.342Z,10.30
2022-10-31T04:56:03.682Z,10.23
2022-10-31T04:58:30.815Z,10.07
2022-10-31T05:00:58.077Z,10.09
2022-10-31T05:03:25.208Z,10.16
2022-10-31T05:05:52.183Z,10.18
2022-10-31T05:08:19.129Z,10.09
2022-10-31T05:10:46.053Z,10.28
2022-10-31T05:13:13.248Z,10.08
2022-10-31T05:15:40.237Z,10.12
2022-10-31T05:18:07.202Z,9.98
2022-10-31T05:20:34.451Z,10.11
2022-10-31T05:23:01.754Z,10.14
2022-10-31T05:25:29.975Z,10.30
2022-10-31T05:27:58.024Z,10.31
2022-10-31T05:30:33.142Z,10.48
2022-10-31T05:33:00.685Z,10.42
2022-10-31T05:35:31.986Z,10.28
2022-10-31T05:37:59.814Z,10.44
2022-10-31T05:40:28.545Z,10.52
2022-10-31T05:42:57.863Z,10.38
2022-10-31T05:45:25.629Z,10.30
2022-10-31T05:47:59.164Z,10.23
2022-10-31T05:50:29.712Z,10.41
2022-10-31T05:53:02.953Z,10.41
2022-10-31T05:55:30.658Z,10.68
2022-10-31T05:57:57.924Z,10.49
2022-10-31T06:00:26.780Z,10.49
2022-10-31T06:03:05.955Z,10.56
2022-10-31T06:05:33.216Z,10.44
2022-10-31T06:08:01.083Z,10.48
2022-10-31T06:10:29.049Z,10.28
2022-10-31T06:12:56.067Z,10.31
2022-10-31T06:15:24.430Z,10.43
2022-10-31T06:18:03.936Z,10.44
2022-10-31T06:20:32.146Z,10.25
2022-10-31T06:22:59.825Z,10.22
2022-10-31T06:25:27.272Z,10.20
2022-10-31T06:27:54.560Z,10.27
2022-10-31T06:30:21.858Z,10.27
2022-10-31T06:32:48.784Z,10.78
2022-10-31T06:35:15.803Z,11.46
2022-10-31T06:37:44.460Z,12.49
2022-10-31T06:40:13.767Z,13.59
2022-10-31T06:42:40.722Z,14.27
2022-10-31T06:45:08.170Z,14.97
2022-10-31T06:47:41.381Z,15.37
2022-10-31T06:50:12.775Z,16.14
2022-10-31T06:52:39.660Z,16.59
2022-10-31T06:55:06.923Z,16.89
2022-10-31T06:57:33.822Z,17.14
2022-10-31T07:00:00.730Z,17.43
2022-10-31T07:02:27.643Z,17.57
2022-10-31T07:04:54.585Z,17.95
2022-10-31T07:07:22.653Z,17.87
2022-10-31T07:09:49.667Z,17.88
2022-10-31T07:12:17.865Z,18.05
2022-10-31T07:14:44.759Z,18.12
2022-10-31T07:17:11.764Z,18.27
2022-10-31T07:19:38.667Z,18.23
2022-10-31T07:22:05.569Z,18.51
2022-10-31T07:24:32.517Z,18.23
2022-10-31T07:29:31.228Z,18.70
2022-10-31T07:31:58.226Z,18.49
2022-10-31T07:34:25.129Z,18.53
2022-10-31T07:36:53.014Z,18.88
2022-10-31T07:39:19.914Z,18.33
2022-10-31T07:41:46.789Z,17.87
2022-10-31T07:44:13.665Z,18.17
2022-10-31T07:46:40.649Z,18.81
2022-10-31T07:49:08.025Z,18.82
2022-10-31T07:51:34.941Z,18.54
2022-10-31T07:54:02.290Z,18.39
2022-10-31T07:56:29.198Z,17.81
2022-10-31T07:58:56.123Z,17.88
2022-10-31T08:01:23.069Z,17.93
2022-10-31T08:03:49.971Z,18.12
2022-10-31T08:06:16.894Z,18.64
2022-10-31T08:08:43.834Z,18.12
2022-10-31T08:11:10.741Z,18.17
2022-10-31T08:13:37.866Z,18.12
2022-10-31T08:16:05.795Z,18.97
2022-10-31T08:18:32.908Z,18.82
2022-10-31T08:20:59.871Z,18.44
2022-10-31T08:23:26.799Z,18.55
2022-10-31T08:25:53.798Z,18.84
2022-10-31T08:28:20.749Z,19.12
2022-10-31T08:30:48.417Z,19.59
2022-10-31T08:33:19.206Z,19.66
2022-10-31T08:35:46.455Z,19.65
2022-10-31T08:38:15.147Z,20.35
2022-10-31T08:40:42.511Z,20.82
2022-10-31T08:43:14.912Z,20.95
2022-10-31T08:45:43.716Z,21.41
2022-10-31T08:48:16.323Z,21.40
2022-10-31T08:50:46.049Z,21.04
2022-10-31T08:53:19.290Z,21.94
2022-10-31T08:55:47.880Z,20.54
2022-10-31T08:58:20.340Z,21.35
2022-10-31T09:00:50.751Z,20.99
2022-10-31T09:03:24.531Z,20.92
2022-10-31T09:05:55.403Z,21.19
2022-10-31T09:08:22.544Z,21.45
2022-10-31T09:10:50.068Z,20.94
2022-10-31T09:13:20.627Z,21.20
2022-10-31T09:15:50.325Z,21.65
2022-10-31T09:18:21.481Z,21.41
2022-10-31T09:20:50.490Z,20.97
2022-10-31T09:23:24.660Z,20.41
2022-10-31T09:25:53.804Z,20.81
2022-10-31T09:28:24.293Z,20.63
2022-10-31T09:30:54.161Z,20.71
2022-10-31T09:33:21.785Z,20.42
2022-10-31T09:35:49.235Z,20.11
2022-10-31T09:38:24.378Z,20.04
2022-10-31T09:41:29.704Z,19.79
2022-10-31T09:44:18.685Z,20.47
2022-10-31T09:46:58.217Z,20.27
2022-10-31T09:50:08.936Z,20.11
2022-10-31T09:52:43.002Z,20.05
2022-10-31T09:55:25.322Z,20.84
2022-10-31T09:57:52.670Z,20.16
2022-10-31T10:00:22.523Z,19.72
2022-10-31T10:03:22.993Z,19.85
2022-10-31T10:06:12.783Z,19.11
2022-10-31T10:08:39.929Z,19.33
2022-10-31T10:11:09.801Z,19.98
2022-10-31T10:13:55.978Z,19.73
2022-10-31T10:16:41.489Z,19.54
2022-10-31T10:19:25.552Z,19.27
2022-10-31T10:22:13.838Z,19.47
2022-10-31T10:25:08.128Z,19.44
2022-10-31T10:28:39.239Z,20.30
2022-10-31T10:31:23.827Z,20.29
2022-10-31T10:34:20.544Z,20.26
2022-10-31T10:36:58.992Z,19.85
2022-10-31T10:39:36.461Z,19.78
2022-10-31T10:42:32.170Z,19.71
2022-10-31T10:45:18.859Z,19.99
2022-10-31T10:48:02.761Z,19.97
2022-10-31T10:50:40.797Z,20.27
2022-10-31T10:54:00.578Z,20.56
2022-10-31T10:57:05.629Z,19.73
2022-10-31T10:59:32.875Z,19.72
2022-10-31T11:02:01.298Z,19.63
2022-10-31T11:04:37.046Z,19.52
2022-10-31T11:07:11.014Z,19.48
2022-10-31T11:09:39.271Z,19.37
2022-10-31T11:12:23.009Z,19.72
2022-10-31T11:14:59.294Z,20.05
2022-10-31T11:17:39.753Z,20.26
2022-10-31T11:20:18.130Z,20.43
2022-10-31T11:22:48.642Z,20.71
2022-10-31T11:25:26.953Z,21.13
2022-10-31T11:28:10.157Z,20.73
2022-10-31T11:30:59.527Z,20.68
2022-10-31T11:33:38.987Z,20.76
2022-10-31T11:36:24.057Z,20.90
2022-10-31T11:38:52.477Z,20.64
2022-10-31T11:41:39.409Z,21.16
2022-10-31T11:44:20.629Z,20.01
2022-10-31T11:47:01.108Z,20.25
2022-10-31T11:49:44.767Z,20.05
2022-10-31T11:52:20.242Z,20.32
2022-10-31T11:55:35.854Z,20.20
2022-10-31T11:58:03.562Z,20.41
2022-10-31T12:00:38.851Z,20.42
2022-10-31T12:03:17.665Z,20.72
2022-10-31T12:05:46.761Z,19.89
2022-10-31T12:08:15.042Z,19.92
2022-10-31T12:11:11.565Z,20.14
2022-10-31T12:14:05.425Z,19.50
2022-10-31T12:16:46.807Z,19.64
2022-10-31T12:19:16.648Z,19.62
2022-10-31T12:22:01.605Z,19.72
2022-10-31T12:24:52.396Z,19.15
2022-10-31T12:27:39.026Z,19.07
2022-10-31T12:30:43.398Z,18.67
2022-10-31T12:33:54.229Z,18.71
2022-10-31T12:36:45.674Z,19.02
2022-10-31T12:39:33.449Z,18.99
2022-10-31T12:42:34.354Z,18.61
2022-10-31T12:45:27.572Z,18.83
2022-10-31T12:48:09.383Z,18.54
2022-10-31T12:51:05.318Z,18.85
2022-10-31T12:53:54.952Z,19.06
2022-10-31T12:57:02.264Z,18.78
2022-10-31T12:59:36.869Z,18.49
2022-10-31T13:03:00.237Z,18.21
2022-10-31T13:05:38.059Z,18.09
2022-10-31T13:08:12.125Z,18.06
2022-10-31T13:10:58.246Z,18.11
2022-10-31T13:13:58.959Z,18.21
2022-10-31T13:16:39.390Z,18.34
2022-10-31T13:19:23.681Z,18.33
2022-10-31T13:22:19.932Z,18.33
2022-10-31T13:25:10.968Z,18.20
2022-10-31T13:27:54.030Z,18.07
2022-10-31T13:30:34.382Z,17.92
2022-10-31T13:33:26.925Z,18.03
2022-10-31T13:36:16.349Z,18.02
2022-10-31T13:39:03.975Z,17.77
2022-10-31T13:41:44.987Z,17.89
2022-10-31T13:44:25.019Z,17.53
2022-10-31T13:46:54.055Z,17.65
2022-10-31T13:49:42.268Z,17.40
2022-10-31T13:52:11.888Z,17.29
2022-10-31T13:54:38.689Z,17.28
2022-10-31T13:57:42.886Z,16.87
2022-10-31T14:00:21.878Z,16.99
2022-10-31T14:02:58.565Z,16.84
2022-10-31T14:05:36.324Z,16.86
2022-10-31T14:08:06.835Z,16.64
2022-10-31T14:10:47.536Z,16.68
2022-10-31T14:13:32.673Z,16.55
2022-10-31T14:16:07.843Z,16.49
2022-10-31T14:18:47.708Z,16.51
2022-10-31T14:21:30.101Z,16.30
2022-10-31T14:23:58.512Z,16.18
2022-10-31T14:26:28.185Z,16.06
2022-10-31T14:29:03.091Z,16.05
2022-10-31T14:31:55.188Z,15.91
2022-10-31T14:34:43.272Z,15.90
2022-10-31T14:37:59.184Z,15.78
2022-10-31T14:41:05.575Z,15.56
2022-10-31T14:44:22.099Z,15.51
2022-10-31T14:47:27.352Z,15.41
2022-10-31T14:50:24.867Z,15.30
2022-10-31T14:52:57.326Z,15.21
2022-10-31T14:55:25.659Z,15.06
2022-10-31T14:58:00.604Z,14.99
2022-10-31T15:00:29.169Z,14.83
2022-10-31T15:03:14.179Z,14.74
2022-10-31T15:05:54.052Z,14.65
2022-10-31T15:08:46.859Z,14.75
2022-10-31T15:11:21.182Z,14.56
2022-10-31T15:13:57.377Z,14.50
2022-10-31T15:16:44.384Z,14.47
2022-10-31T15:19:24.109Z,14.41
2022-10-31T15:21:54.515Z,14.38
2022-10-31T15:24:23.918Z,14.37
2022-10-31T15:26:54.290Z,14.30
2022-10-31T15:29:25.628Z,14.24
2022-10-31T15:31:59.540Z,14.23
2022-10-31T15:34:42.131Z,14.12
2022-10-31T15:37:14.929Z,13.98
2022-10-31T15:39:45.670Z,14.00
2022-10-31T15:42:26.813Z,13.99
2022-10-31T15:45:11.853Z,13.89
2022-10-31T15:47:39.699Z,13.80
2022-10-31T15:50:23.712Z,13.91
2022-10-31T15:52:51.427Z,14.05
2022-10-31T15:55:30.370Z,13.95
2022-10-31T15:58:01.552Z,13.90
2022-10-31T16:00:32.070Z,13.86
2022-10-31T16:03:15.091Z,13.84
2022-10-31T16:06:06.004Z,13.84
2022-10-31T16:08:37.260Z,13.87
2022-10-31T16:11:13.680Z,13.85
2022-10-31T16:13:55.258Z,13.90
2022-10-31T16:16:35.615Z,13.84
2022-10-31T16:19:06.302Z,13.82
2022-10-31T16:21:39.637Z,13.71
2022-10-31T16:24:27.631Z,13.70
2022-10-31T16:27:04.004Z,13.63
2022-10-31T16:29:42.972Z,13.72
2022-10-31T16:32:52.178Z,13.76
2022-10-31T16:35:33.093Z,13.81
2022-10-31T16:38:00.019Z,13.73
2022-10-31T16:40:27.417Z,13.79
2022-10-31T16:42:54.423Z,13.64
2022-10-31T16:45:26.007Z,13.71
2022-10-31T16:47:53.560Z,13.61
2022-10-31T16:50:28.003Z,13.63
2022-10-31T16:56:03.866Z,13.90
2022-10-31T16:58:34.283Z,13.73
2022-10-31T17:01:07.814Z,13.69
2022-10-31T17:03:34.956Z,13.64
2022-10-31T17:06:01.988Z,13.69
2022-10-31T17:08:29.010Z,13.69
2022-10-31T17:10:58.790Z,13.79
2022-10-31T17:13:34.470Z,13.69
2022-10-31T17:16:04.184Z,13.80
2022-10-31T17:18:31.201Z,13.67
2022-10-31T17:21:01.012Z,13.67
2022-10-31T17:23:29.309Z,13.67
2022-10-31T17:25:56.824Z,13.73
2022-10-31T17:28:25.099Z,13.84
2022-10-31T17:30:54.038Z,13.76
2022-10-31T17:33:21.877Z,13.66
2022-10-31T17:35:48.804Z,13.64
2022-10-31T17:38:15.741Z,13.63
2022-10-31T17:40:42.807Z,13.56
2022-10-31T17:43:11.489Z,13.68
2022-10-31T17:45:42.456Z,13.61
2022-10-31T17:48:13.091Z,13.54
2022-10-31T17:50:40.312Z,13.56
2022-10-31T17:53:07.198Z,13.68
2022-10-31T17:55:36.219Z,13.53
2022-10-31T17:58:04.926Z,13.53
2022-10-31T18:00:31.999Z,13.53
2022-10-31T18:02:59.369Z,13.63
2022-10-31T18:05:26.499Z,13.59
2022-10-31T18:07:53.538Z,13.49
2022-10-31T18:10:20.492Z,13.48
2022-10-31T18:12:48.830Z,13.56
2022-10-31T18:15:17.379Z,13.54
2022-10-31T18:17:45.694Z,13.65
2022-10-31T18:20:13.134Z,13.63
2022-10-31T18:22:40.072Z,13.59
2022-10-31T18:25:07.415Z,13.45
2022-10-31T18:27:34.351Z,13.70
2022-10-31T18:30:01.326Z,13.67
2022-10-31T18:32:28.335Z,13.67
2022-10-31T18:34:55.257Z,13.49
2022-10-31T18:37:22.170Z,13.54
2022-10-31T18:39:49.090Z,13.59
2022-10-31T18:42:16.075Z,13.60
2022-10-31T18:44:42.998Z,13.69
2022-10-31T18:47:09.937Z,13.58
2022-10-31T18:49:36.867Z,13.70
2022-10-31T18:52:04.804Z,13.69
2022-10-31T18:54:31.790Z,13.84
2022-10-31T18:56:58.762Z,13.52
2022-10-31T18:59:25.737Z,13.56
2022-10-31T19:01:52.904Z,13.46
2022-10-31T19:04:19.965Z,13.42
2022-10-31T19:06:47.062Z,13.54
2022-10-31T19:09:14.024Z,13.52
2022-10-31T19:11:40.986Z,13.60
2022-10-31T19:14:11.174Z,13.70
2022-10-31T19:16:38.407Z,13.58
2022-10-31T19:19:05.616Z,13.59
2022-10-31T19:21:32.909Z,13.51
2022-10-31T19:24:00.907Z,13.46
2022-10-31T19:26:28.697Z,13.46
2022-10-31T19:28:56.842Z,13.49
2022-10-31T19:31:24.117Z,13.52
2022-10-31T19:33:51.297Z,13.46
2022-10-31T19:36:20.328Z,13.48
2022-10-31T19:38:52.784Z,13.51
2022-10-31T19:41:24.449Z,13.45
2022-10-31T19:43:51.674Z,13.46
2022-10-31T19:46:33.803Z,13.60
2022-10-31T19:49:10.912Z,13.55
2022-10-31T19:51:38.139Z,13.53
2022-10-31T19:54:06.121Z,13.55
2022-10-31T19:56:33.070Z,13.53
2022-10-31T19:59:00.028Z,13.57
2022-10-31T20:01:27.055Z,13.53
2022-10-31T20:03:54.106Z,13.39
2022-10-31T20:06:26.846Z,13.52
2022-10-31T20:08:55.810Z,13.48
2022-10-31T20:11:28.434Z,13.66
2022-10-31T20:13:57.103Z,13.53
2022-10-31T20:16:25.253Z,13.56
2022-10-31T20:18:52.616Z,13.59
2022-10-31T20:21:23.596Z,13.59
2022-10-31T20:24:04.039Z,13.47
2022-10-31T20:26:32.444Z,13.64
2022-10-31T20:29:01.106Z,13.37
2022-10-31T20:31:31.693Z,13.34
2022-10-31T20:33:58.874Z,13.59
2022-10-31T20:36:25.898Z,13.50
2022-10-31T20:38:53.159Z,13.53
2022-10-31T20:41:20.295Z,13.55
2022-10-31T20:43:47.791Z,13.45
2022-10-31T20:46:18.631Z,13.64
2022-10-31T20:48:46.441Z,13.48
2022-10-31T20:51:23.212Z,13.42
2022-10-31T20:53:52.058Z,13.37
2022-10-31T20:56:22.795Z,13.33
2022-10-31T20:58:50.784Z,13.27
2022-10-31T21:01:27.708Z,13.38
2022-10-31T21:03:55.103Z,13.36
2022-10-31T21:06:23.424Z,13.41
2022-10-31T21:08:51.648Z,13.37
2022-10-31T21:11:22.127Z,13.44
2022-10-31T21:13:50.189Z,13.41
2022-10-31T21:16:24.453Z,13.46
2022-10-31T21:18:52.024Z,13.43
2022-10-31T21:21:32.171Z,13.42
2022-10-31T21:24:12.701Z,13.43
2022-10-31T21:26:44.314Z,13.49
2022-10-31T21:29:13.408Z,13.41
2022-10-31T21:31:41.221Z,13.47
2022-10-31T21:34:08.741Z,13.43
2022-10-31T21:36:36.375Z,13.44
2022-10-31T21:39:06.959Z,13.47
2022-10-31T21:41:34.795Z,13.46
2022-10-31T21:44:02.056Z,13.40
2022-10-31T21:46:31.913Z,13.36
2022-10-31T21:49:01.374Z,13.34
2022-10-31T21:51:32.062Z,13.36
2022-10-31T21:54:18.426Z,13.56
2022-10-31T21:56:45.769Z,13.39
2022-10-31T21:59:13.227Z,13.44
2022-10-31T22:01:40.453Z,13.45
2022-10-31T22:04:07.555Z,13.49
2022-10-31T22:06:35.579Z,13.40
2022-10-31T22:09:06.478Z,13.52
2022-10-31T22:11:34.523Z,13.56
2022-10-31T22:14:02.343Z,13.56
2022-10-31T22:16:31.253Z,13.38
2022-10-31T22:19:00.278Z,13.42
2022-10-31T22:21:28.820Z,13.45
2022-10-31T22:24:01.856Z,13.34
2022-10-31T22:26:32.326Z,13.26
2022-10-31T22:29:02.239Z,13.29
2022-10-31T22:31:30.892Z,13.34
2022-10-31T22:33:58.251Z,13.25
2022-10-31T22:36:29.226Z,13.26
2022-10-31T22:38:56.673Z,13.15
2022-10-31T22:41:28.688Z,13.05
2022-10-31T22:43:56.900Z,13.11
2022-10-31T22:46:28.706Z,13.13
2022-10-31T22:48:59.718Z,13.20
2022-10-31T22:51:30.519Z,13.22
2022-10-31T22:53:57.818Z,13.21
2022-10-31T22:56:28.997Z,13.21
2022-10-31T22:58:56.660Z,13.12
2022-10-31T23:01:32.961Z,13.17
2022-10-31T23:04:01.037Z,13.20
2022-10-31T23:06:33.023Z,13.24
2022-10-31T23:09:02.237Z,13.18
2022-10-31T23:11:40.362Z,13.29
2022-10-31T23:14:16.344Z,13.24
2022-10-31T23:16:50.732Z,13.24
2022-10-31T23:19:29.446Z,13.33
2022-10-31T23:22:00.945Z,13.24
2022-10-31T23:24:34.089Z,13.24
2022-10-31T23:27:10.323Z,13.26
2022-10-31T23:29:48.028Z,13.21
2022-10-31T23:32:23.831Z,13.18
2022-10-31T23:34:54.442Z,13.19
2022-10-31T23:37:24.557Z,13.15
2022-10-31T23:39:51.584Z,13.13
2022-10-31T23:42:19.291Z,13.13
2022-10-31T23:44:46.964Z,13.10
2022-10-31T23:47:14.798Z,13.15
2022-10-31T23:49:41.871Z,13.10
2022-10-31T23:52:08.827Z,13.09
2022-10-31T23:54:36.421Z,13.08
2022-10-31T23:57:04.035Z,13.03
2022-10-31T23:59:31.557Z,13.09
